Time;durP1;ratioP1;P1;durP2;ratioP2;P2;SDS_P1;SDS_P2;PMS_P1;PMS_P2;Temp;Humidity;BMP_temperature;BMP_pressure;BME280_temperature;BME280_humidity;BME280_pressure;Samples;Min_cycle;Max_cycle;Signal;HPM_P1;HPM_P2
2023/09/14 00:01:15;;;;;;;24.45;17.42;;;18.20;99.90;;;;;;4938595;28;20247;-89
2023/09/14 00:03:43;;;;;;;26.67;17.23;;;18.10;99.90;;;;;;4939379;28;20722;-90
2023/09/14 00:06:11;;;;;;;26.42;16.73;;;18.00;99.90;;;;;;4936124;29;20737;-89
2023/09/14 00:08:38;;;;;;;26.13;17.05;;;18.10;99.90;;;;;;4935739;29;20220;-89
2023/09/14 00:11:06;;;;;;;22.58;15.65;;;18.00;99.90;;;;;;4936082;29;20231;-90
2023/09/14 00:13:34;;;;;;;23.02;17.13;;;18.00;99.90;;;;;;4936105;29;20600;-90
2023/09/14 00:16:02;;;;;;;25.65;17.05;;;17.90;99.90;;;;;;4936391;29;20223;-91
2023/09/14 00:18:30;;;;;;;24.08;16.00;;;17.90;99.90;;;;;;4952960;29;20188;-88
2023/09/14 00:20:57;;;;;;;23.58;16.33;;;17.90;99.90;;;;;;4935792;29;20284;-90
2023/09/14 00:23:25;;;;;;;27.70;16.58;;;18.00;99.90;;;;;;4935589;29;20200;-90
2023/09/14 00:25:53;;;;;;;22.95;16.75;;;18.00;99.90;;;;;;4919881;29;20239;-89
2023/09/14 00:28:20;;;;;;;22.42;17.27;;;18.10;99.90;;;;;;4918694;29;20702;-90
2023/09/14 00:30:52;;;;;;;24.35;18.05;;;18.10;99.90;;;;;;4935608;29;20255;-89
2023/09/14 00:33:21;;;;;;;28.23;17.90;;;18.10;99.90;;;;;;4935634;29;20712;-88
2023/09/14 00:35:50;;;;;;;24.95;17.13;;;18.00;99.90;;;;;;4919756;29;20267;-91
2023/09/14 00:38:18;;;;;;;23.15;16.17;;;18.00;99.90;;;;;;4919897;29;20196;-90
2023/09/14 00:40:45;;;;;;;21.58;16.90;;;18.00;99.90;;;;;;4935585;29;20244;-89
2023/09/14 00:43:13;;;;;;;23.45;17.00;;;18.00;99.90;;;;;;4935768;29;20219;-90
2023/09/14 00:45:41;;;;;;;23.92;16.05;;;18.00;99.90;;;;;;4935615;29;20200;-89
2023/09/14 00:48:09;;;;;;;24.92;15.70;;;18.10;99.90;;;;;;4935086;29;20801;-89
2023/09/14 00:50:38;;;;;;;21.70;14.57;;;18.20;99.90;;;;;;4919561;29;20188;-89
2023/09/14 00:53:13;;;;;;;23.67;15.50;;;18.20;99.90;;;;;;4919697;29;20631;-89
2023/09/14 00:55:43;;;;;;;25.90;17.23;;;18.20;99.90;;;;;;4919401;29;20192;-88
2023/09/14 00:58:15;;;;;;;23.65;15.80;;;18.20;99.90;;;;;;4934912;29;20272;-90
2023/09/14 01:00:45;;;;;;;25.15;15.48;;;18.10;99.90;;;;;;4919910;29;20200;-90
2023/09/14 01:03:13;;;;;;;23.23;17.15;;;18.10;99.90;;;;;;4952503;29;20193;-90
2023/09/14 01:05:43;;;;;;;22.83;16.52;;;18.10;99.90;;;;;;4952568;29;20244;-90
2023/09/14 01:08:11;;;;;;;24.73;17.67;;;18.00;99.90;;;;;;4919688;29;20236;-89
2023/09/14 01:10:39;;;;;;;27.33;17.05;;;17.80;99.90;;;;;;4935173;29;20962;-90
2023/09/14 01:13:13;;;;;;;24.98;16.52;;;17.80;99.90;;;;;;4919260;29;20674;-90
2023/09/14 01:15:50;;;;;;;22.50;15.55;;;17.70;99.90;;;;;;4934831;29;20199;-91
2023/09/14 01:18:30;;;;;;;22.30;15.85;;;17.90;99.90;;;;;;4935201;29;20200;-89
2023/09/14 01:21:26;;;;;;;24.65;16.55;;;17.90;99.90;;;;;;4919515;29;20275;-91
2023/09/14 01:24:28;;;;;;;26.38;16.90;;;17.60;99.90;;;;;;4935097;28;20205;-90
2023/09/14 01:26:57;;;;;;;23.67;15.85;;;17.70;99.90;;;;;;4923103;29;20204;-90
2023/09/14 01:29:24;;;;;;;21.80;14.77;;;17.80;99.90;;;;;;4934824;29;20234;-88
2023/09/14 01:31:52;;;;;;;21.50;14.48;;;17.80;99.90;;;;;;4918924;29;20283;-90
2023/09/14 01:34:21;;;;;;;23.33;15.45;;;17.90;99.90;;;;;;4951889;29;20180;-90
2023/09/14 01:36:58;;;;;;;25.35;16.10;;;17.60;99.90;;;;;;4934514;29;20196;-89
2023/09/14 01:39:28;;;;;;;24.02;15.77;;;17.40;99.90;;;;;;4934177;28;20236;-89
2023/09/14 01:41:57;;;;;;;22.58;15.57;;;17.60;99.90;;;;;;4934522;29;20197;-89
2023/09/14 01:44:27;;;;;;;20.23;14.02;;;17.50;99.90;;;;;;4919102;29;20207;-90
2023/09/14 01:46:55;;;;;;;19.98;14.25;;;17.60;99.90;;;;;;4918800;29;20208;-89
2023/09/14 01:49:23;;;;;;;21.20;13.35;;;17.70;99.90;;;;;;4918764;29;20236;-89
2023/09/14 01:51:51;;;;;;;20.25;14.18;;;17.80;99.90;;;;;;4934404;29;20196;-90
2023/09/14 01:54:19;;;;;;;23.83;14.57;;;17.60;99.90;;;;;;4934553;29;20200;-90
2023/09/14 01:56:47;;;;;;;22.20;14.80;;;17.50;99.90;;;;;;4918810;29;20207;-90
2023/09/14 01:59:15;;;;;;;19.63;13.68;;;17.50;99.90;;;;;;4919050;29;20706;-90
2023/09/14 02:01:43;;;;;;;20.70;13.45;;;17.30;99.90;;;;;;4934657;29;20203;-88
2023/09/14 02:04:10;;;;;;;22.17;13.70;;;17.40;99.90;;;;;;4934721;29;20935;-89
2023/09/14 02:06:38;;;;;;;20.20;13.80;;;17.40;99.90;;;;;;4918784;29;20251;-90
2023/09/14 02:09:06;;;;;;;20.05;13.45;;;17.40;99.90;;;;;;4951520;29;20205;-89
2023/09/14 02:11:33;;;;;;;20.48;13.02;;;17.40;99.90;;;;;;4934414;29;20608;-90
2023/09/14 02:14:01;;;;;;;24.40;13.57;;;17.40;99.90;;;;;;4934337;29;20211;-91
2023/09/14 02:16:28;;;;;;;24.38;13.98;;;17.30;99.90;;;;;;4918744;29;20571;-89
2023/09/14 02:18:56;;;;;;;19.00;13.25;;;17.30;99.90;;;;;;4934228;29;20579;-90
2023/09/14 02:21:23;;;;;;;19.48;12.68;;;17.30;99.90;;;;;;4934634;29;20196;-89
2023/09/14 02:23:51;;;;;;;15.93;11.55;;;17.40;99.90;;;;;;4934123;29;20275;-89
2023/09/14 02:26:19;;;;;;;20.10;13.13;;;17.40;99.90;;;;;;4934185;29;20200;-89
2023/09/14 02:28:46;;;;;;;21.67;12.85;;;17.40;99.90;;;;;;4918340;29;20220;-90
2023/09/14 02:31:15;;;;;;;19.70;13.35;;;17.40;99.90;;;;;;4934276;29;20564;-89
2023/09/14 02:33:42;;;;;;;20.63;12.77;;;17.30;99.90;;;;;;4918317;29;20204;-90
2023/09/14 02:36:10;;;;;;;19.85;11.85;;;17.20;99.90;;;;;;4918399;29;20193;-89
2023/09/14 02:38:38;;;;;;;17.30;13.40;;;17.20;99.90;;;;;;4918299;29;20200;-90
2023/09/14 02:41:05;;;;;;;18.48;12.95;;;17.20;99.90;;;;;;4930608;29;20324;-88
2023/09/14 02:43:33;;;;;;;17.63;12.50;;;17.20;99.90;;;;;;4930925;29;20549;-89
2023/09/14 02:46:00;;;;;;;17.33;11.60;;;17.30;99.90;;;;;;4946657;29;20229;-91
2023/09/14 02:48:28;;;;;;;19.92;12.07;;;17.20;99.90;;;;;;4930849;29;20213;-89
2023/09/14 02:50:56;;;;;;;17.58;12.10;;;17.30;99.90;;;;;;4916110;29;20200;-89
2023/09/14 02:53:24;;;;;;;21.13;13.15;;;17.20;99.90;;;;;;4934115;29;20201;-88
2023/09/14 02:55:51;;;;;;;22.27;13.23;;;17.30;99.90;;;;;;4918334;29;20205;-89
2023/09/14 02:58:19;;;;;;;18.13;12.38;;;17.30;99.90;;;;;;4918264;29;20207;-88
2023/09/14 03:00:47;;;;;;;18.60;12.48;;;17.30;99.90;;;;;;4933771;29;20689;-87
2023/09/14 03:03:17;;;;;;;18.60;11.48;;;17.30;99.90;;;;;;4914768;29;20677;-89
2023/09/14 03:05:48;;;;;;;17.48;12.43;;;17.30;99.90;;;;;;4914846;29;20204;-89
2023/09/14 03:08:16;;;;;;;15.23;10.73;;;17.10;99.90;;;;;;4899307;29;20216;-87
2023/09/14 03:10:44;;;;;;;20.27;12.90;;;17.20;99.90;;;;;;4899191;29;20945;-89
2023/09/14 03:13:11;;;;;;;19.30;12.73;;;17.20;99.90;;;;;;4916266;29;20303;-88
2023/09/14 03:15:39;;;;;;;22.23;12.70;;;17.10;99.90;;;;;;4914841;29;20557;-89
2023/09/14 03:18:07;;;;;;;20.40;12.02;;;17.00;99.90;;;;;;4899150;29;20202;-87
2023/09/14 03:20:35;;;;;;;21.58;13.07;;;17.00;99.90;;;;;;4914604;29;20257;-88
2023/09/14 03:23:02;;;;;;;18.30;11.60;;;16.90;99.90;;;;;;4899013;29;20200;-87
2023/09/14 03:25:31;;;;;;;22.02;12.63;;;17.00;99.90;;;;;;4899092;29;20300;-88
2023/09/14 03:27:58;;;;;;;18.90;12.23;;;16.70;99.90;;;;;;4916066;29;20193;-87
2023/09/14 03:30:26;;;;;;;21.52;13.98;;;16.80;99.90;;;;;;4914565;29;20198;-89
2023/09/14 03:32:53;;;;;;;21.00;12.80;;;16.80;99.90;;;;;;4916276;29;20190;-87
2023/09/14 03:35:21;;;;;;;21.52;13.93;;;16.80;99.90;;;;;;4915802;29;20192;-89
2023/09/14 03:37:49;;;;;;;17.95;11.85;;;16.80;99.90;;;;;;4914575;29;20182;-89
2023/09/14 03:40:17;;;;;;;22.73;12.43;;;16.90;99.90;;;;;;4899186;29;20233;-90
2023/09/14 03:42:45;;;;;;;24.05;14.25;;;17.00;99.90;;;;;;4898308;29;20217;-87
2023/09/14 03:45:13;;;;;;;22.92;13.15;;;17.00;99.90;;;;;;4914637;29;20194;-88
2023/09/14 03:47:40;;;;;;;18.85;12.73;;;17.00;99.90;;;;;;4932773;29;20220;-88
2023/09/14 03:50:10;;;;;;;18.38;12.25;;;16.90;99.90;;;;;;4932900;29;20692;-89
2023/09/14 03:52:37;;;;;;;16.05;11.77;;;17.00;99.90;;;;;;4917269;29;20197;-89
2023/09/14 03:55:06;;;;;;;17.85;12.05;;;17.10;99.90;;;;;;4932838;29;20280;-87
2023/09/14 03:57:33;;;;;;;17.73;11.43;;;17.00;99.90;;;;;;4934144;29;20652;-90
2023/09/14 04:00:09;;;;;;;22.73;14.18;;;17.00;99.90;;;;;;4932812;29;20294;-89
2023/09/14 04:02:40;;;;;;;20.02;11.40;;;17.10;99.90;;;;;;4928349;29;20284;-89
2023/09/14 04:05:16;;;;;;;20.67;12.35;;;17.10;99.90;;;;;;4922275;29;20688;-89
2023/09/14 04:07:44;;;;;;;20.23;13.93;;;17.20;99.90;;;;;;4929536;29;20193;-88
2023/09/14 04:10:13;;;;;;;23.15;14.15;;;17.20;99.90;;;;;;4901403;29;20854;-90
2023/09/14 04:12:43;;;;;;;20.73;13.00;;;16.90;99.90;;;;;;4924486;29;20190;-89
2023/09/14 04:15:11;;;;;;;19.67;13.43;;;16.90;99.90;;;;;;4926903;29;20198;-90
2023/09/14 04:17:40;;;;;;;21.27;12.75;;;16.90;99.90;;;;;;4913808;29;20201;-89
2023/09/14 04:20:11;;;;;;;19.10;12.85;;;16.90;99.90;;;;;;4914531;29;20249;-89
2023/09/14 04:22:40;;;;;;;22.27;13.10;;;16.90;99.90;;;;;;4928860;29;20190;-89
2023/09/14 04:25:08;;;;;;;21.23;13.23;;;16.80;99.90;;;;;;4926120;29;20186;-88
2023/09/14 04:27:36;;;;;;;20.25;13.95;;;16.80;99.90;;;;;;4920067;29;20703;-90
2023/09/14 04:30:08;;;;;;;19.33;12.60;;;16.90;99.90;;;;;;4921994;29;20214;-89
2023/09/14 04:32:36;;;;;;;24.77;12.98;;;17.00;99.90;;;;;;4912192;29;20295;-90
2023/09/14 04:35:04;;;;;;;20.30;13.82;;;17.00;99.90;;;;;;4927895;29;20197;-90
2023/09/14 04:37:33;;;;;;;21.67;15.00;;;16.90;99.90;;;;;;4913449;29;20196;-89
2023/09/14 04:40:01;;;;;;;22.85;13.95;;;16.80;99.90;;;;;;4900347;29;20242;-88
2023/09/14 04:42:29;;;;;;;22.08;13.80;;;16.80;99.90;;;;;;4912571;29;20277;-88
2023/09/14 04:44:56;;;;;;;26.83;14.63;;;16.80;99.90;;;;;;4932539;29;20224;-89
2023/09/14 04:47:24;;;;;;;21.63;14.35;;;16.80;99.90;;;;;;4915568;29;20209;-88
2023/09/14 04:49:52;;;;;;;22.05;14.55;;;16.80;99.90;;;;;;4915908;29;20589;-91
2023/09/14 04:52:19;;;;;;;23.25;14.77;;;16.80;99.90;;;;;;4913902;29;20193;-90
2023/09/14 04:54:47;;;;;;;18.48;14.15;;;16.70;99.90;;;;;;4930470;29;20285;-88
2023/09/14 04:57:15;;;;;;;21.55;15.23;;;16.70;99.90;;;;;;4907494;29;20202;-89
2023/09/14 04:59:42;;;;;;;22.13;16.05;;;16.70;99.90;;;;;;4917277;29;20863;-89
2023/09/14 05:02:10;;;;;;;24.00;15.50;;;16.60;99.90;;;;;;4923098;29;20197;-90
2023/09/14 05:04:37;;;;;;;24.13;14.70;;;16.60;99.90;;;;;;4928345;29;20189;-91
2023/09/14 05:07:05;;;;;;;23.13;16.08;;;16.70;99.90;;;;;;4916928;29;20208;-89
2023/09/14 05:09:33;;;;;;;23.30;16.35;;;16.70;99.90;;;;;;4919264;29;20214;-89
2023/09/14 05:12:01;;;;;;;22.42;15.23;;;16.70;99.90;;;;;;4898956;29;20193;-91
2023/09/14 05:14:28;;;;;;;22.52;15.98;;;16.70;99.90;;;;;;4909587;29;20265;-88
2023/09/14 05:16:56;;;;;;;22.85;15.48;;;16.70;99.90;;;;;;4922109;29;20293;-90
2023/09/14 05:19:23;;;;;;;23.00;14.85;;;16.80;99.90;;;;;;4923001;29;20255;-91
2023/09/14 05:21:51;;;;;;;21.80;15.45;;;16.80;99.90;;;;;;4915509;29;20205;-90
2023/09/14 05:24:18;;;;;;;24.65;16.17;;;16.80;99.90;;;;;;4897536;29;20194;-85
2023/09/14 05:26:48;;;;;;;20.92;14.70;;;16.80;99.90;;;;;;4923127;29;20301;-86
2023/09/14 05:29:16;;;;;;;27.80;15.77;;;16.80;99.90;;;;;;4930826;29;20237;-88
2023/09/14 05:31:43;;;;;;;24.63;16.15;;;16.80;99.90;;;;;;4925335;29;20189;-88
2023/09/14 05:34:12;;;;;;;21.92;15.73;;;16.80;99.90;;;;;;4918929;29;20194;-89
2023/09/14 05:36:39;;;;;;;23.20;14.77;;;16.80;99.90;;;;;;4922756;29;20189;-87
2023/09/14 05:39:08;;;;;;;21.95;14.38;;;16.80;99.90;;;;;;4906878;29;20197;-87
2023/09/14 05:41:36;;;;;;;22.48;14.98;;;16.70;99.90;;;;;;4935072;29;20201;-89
2023/09/14 05:44:07;;;;;;;23.85;15.15;;;16.70;99.90;;;;;;4966880;28;20199;-88
2023/09/14 05:46:37;;;;;;;26.60;15.38;;;16.70;99.90;;;;;;4932959;28;20574;-88
2023/09/14 05:49:05;;;;;;;22.38;14.95;;;16.60;99.90;;;;;;4927767;28;20228;-87
2023/09/14 05:51:33;;;;;;;21.75;15.07;;;16.60;99.90;;;;;;4939715;29;20567;-88
2023/09/14 05:54:04;;;;;;;24.63;17.23;;;16.60;99.90;;;;;;4926411;29;20191;-89
2023/09/14 05:56:33;;;;;;;26.02;16.50;;;16.40;99.90;;;;;;4941053;29;20220;-88
2023/09/14 05:59:01;;;;;;;24.10;17.40;;;16.50;99.90;;;;;;4936848;29;20196;-87
2023/09/14 06:01:31;;;;;;;25.30;16.85;;;16.40;99.90;;;;;;4965792;28;20192;-87
2023/09/14 06:03:58;;;;;;;29.17;19.00;;;16.40;99.90;;;;;;4941629;28;20199;-88
2023/09/14 06:06:26;;;;;;;27.85;18.38;;;16.40;99.90;;;;;;4936953;28;20199;-90
2023/09/14 06:08:54;;;;;;;29.05;19.80;;;16.50;99.90;;;;;;4939065;28;20255;-90
2023/09/14 06:11:22;;;;;;;30.08;19.70;;;16.50;99.90;;;;;;4930195;29;20204;-90
2023/09/14 06:13:50;;;;;;;25.45;19.80;;;16.50;99.90;;;;;;4924073;28;20196;-90
2023/09/14 06:16:17;;;;;;;26.98;17.92;;;16.60;99.90;;;;;;4960591;28;20190;-90
2023/09/14 06:18:46;;;;;;;24.00;17.65;;;16.70;99.90;;;;;;4943306;29;20220;-89
2023/09/14 06:21:14;;;;;;;26.48;18.75;;;16.70;99.90;;;;;;4945368;28;20659;-90
2023/09/14 06:23:42;;;;;;;30.60;21.85;;;16.70;99.90;;;;;;4946561;28;20215;-90
2023/09/14 06:26:09;;;;;;;27.65;21.17;;;16.70;99.90;;;;;;4941005;28;20702;-90
2023/09/14 06:28:37;;;;;;;29.10;18.83;;;16.70;99.90;;;;;;4956631;28;20184;-88
2023/09/14 06:31:04;;;;;;;26.77;20.67;;;16.80;99.90;;;;;;4956240;28;20199;-87
2023/09/14 06:33:32;;;;;;;28.88;19.95;;;16.70;99.90;;;;;;4949362;28;20255;-87
2023/09/14 06:35:59;;;;;;;27.23;21.02;;;16.70;99.90;;;;;;4948411;28;20284;-87
2023/09/14 06:38:27;;;;;;;27.20;19.20;;;16.70;99.90;;;;;;4952396;28;20264;-87
2023/09/14 06:40:55;;;;;;;29.75;22.65;;;16.70;99.90;;;;;;4958042;28;20234;-88
2023/09/14 06:43:23;;;;;;;28.63;21.48;;;16.60;99.90;;;;;;4963810;28;20282;-89
2023/09/14 06:45:50;;;;;;;28.48;21.45;;;16.50;99.90;;;;;;4964879;28;20207;-88
2023/09/14 06:48:18;;;;;;;26.85;19.95;;;16.70;99.90;;;;;;4940820;28;20196;-88
2023/09/14 06:50:46;;;;;;;28.65;20.55;;;16.70;99.90;;;;;;4938711;28;20207;-88
2023/09/14 06:53:14;;;;;;;29.50;23.20;;;16.80;99.90;;;;;;4932612;28;20197;-88
2023/09/14 06:55:42;;;;;;;32.40;21.45;;;16.80;99.90;;;;;;4959709;28;20195;-89
2023/09/14 06:58:09;;;;;;;28.85;23.02;;;16.80;99.90;;;;;;4949759;28;20214;-88
2023/09/14 07:00:37;;;;;;;30.35;20.70;;;16.90;99.90;;;;;;4955969;28;20206;-89
2023/09/14 07:03:05;;;;;;;28.33;20.60;;;16.90;99.90;;;;;;4946550;28;20224;-89
2023/09/14 07:05:34;;;;;;;26.38;20.48;;;16.90;99.90;;;;;;4930549;28;20197;-88
2023/09/14 07:08:02;;;;;;;26.92;20.33;;;16.90;99.90;;;;;;4950804;28;20208;-89
2023/09/14 07:10:30;;;;;;;25.92;18.80;;;16.80;99.90;;;;;;4965584;28;20204;-89
2023/09/14 07:13:00;;;;;;;25.77;19.30;;;16.90;99.90;;;;;;4950653;28;20238;-88
2023/09/14 07:15:28;;;;;;;28.67;19.23;;;17.00;99.90;;;;;;4946867;28;20270;-88
2023/09/14 07:17:55;;;;;;;27.00;20.38;;;17.00;99.90;;;;;;4959797;28;20189;-89
2023/09/14 07:20:23;;;;;;;29.80;19.52;;;16.90;99.90;;;;;;4947914;28;20963;-88
2023/09/14 07:22:51;;;;;;;25.38;19.23;;;16.90;99.90;;;;;;4953751;28;20283;-89
2023/09/14 07:25:18;;;;;;;29.13;19.63;;;16.90;99.90;;;;;;4933593;28;20819;-89
2023/09/14 07:27:47;;;;;;;28.85;20.90;;;16.90;99.90;;;;;;4939508;29;20287;-89
2023/09/14 07:30:14;;;;;;;26.45;18.85;;;16.90;99.90;;;;;;4947929;28;20542;-89
2023/09/14 07:32:42;;;;;;;18.67;11.45;;;17.00;99.90;;;;;;4945650;28;20224;-88
2023/09/14 07:35:11;;;;;;;10.00;7.57;;;16.90;99.90;;;;;;4958242;28;20287;-88
2023/09/14 07:37:39;;;;;;;6.13;4.57;;;16.90;99.90;;;;;;4953290;28;20195;-87
2023/09/14 07:40:07;;;;;;;3.50;2.45;;;16.80;99.90;;;;;;4928379;29;20224;-88
2023/09/14 07:42:35;;;;;;;2.30;1.40;;;16.60;99.90;;;;;;4921242;29;20259;-88
2023/09/14 07:45:03;;;;;;;2.10;1.60;;;16.40;99.90;;;;;;4926547;28;20232;-88
2023/09/14 07:47:31;;;;;;;2.45;1.15;;;16.40;99.90;;;;;;4946489;28;20203;-87
2023/09/14 07:49:59;;;;;;;1.23;0.98;;;16.30;99.90;;;;;;4936997;29;20216;-88
2023/09/14 07:52:28;;;;;;;2.50;0.80;;;16.30;99.90;;;;;;4946937;29;20223;-89
2023/09/14 07:54:55;;;;;;;1.02;0.70;;;16.30;99.90;;;;;;4953236;28;20552;-89
2023/09/14 07:57:23;;;;;;;1.60;0.60;;;16.20;99.90;;;;;;4939776;28;20203;-89
2023/09/14 07:59:52;;;;;;;0.45;0.45;;;16.10;99.90;;;;;;4955273;28;20203;-88
2023/09/14 08:02:19;;;;;;;0.80;0.40;;;16.10;99.90;;;;;;4962474;28;20670;-89
2023/09/14 08:04:47;;;;;;;0.60;0.40;;;16.10;99.90;;;;;;4936676;28;20207;-89
2023/09/14 08:07:15;;;;;;;2.30;0.40;;;16.10;99.90;;;;;;4944364;28;20195;-89
2023/09/14 08:09:45;;;;;;;3.03;0.40;;;16.10;99.90;;;;;;4960098;28;20208;-88
2023/09/14 08:12:12;;;;;;;0.30;0.30;;;16.20;99.90;;;;;;4926554;29;20192;-91
2023/09/14 08:14:40;;;;;;;0.28;0.28;;;16.30;99.90;;;;;;4947840;28;20192;-90
2023/09/14 08:17:08;;;;;;;1.85;0.45;;;16.30;99.90;;;;;;4945927;28;20187;-91
2023/09/14 08:19:35;;;;;;;1.85;0.40;;;16.10;99.90;;;;;;4931059;28;20572;-88
2023/09/14 08:22:04;;;;;;;2.78;0.30;;;16.10;99.90;;;;;;4961018;28;20635;-87
2023/09/14 08:24:31;;;;;;;0.20;0.20;;;16.10;99.90;;;;;;4946761;28;20204;-89
2023/09/14 08:26:59;;;;;;;0.43;0.32;;;16.10;99.90;;;;;;4953537;28;20188;-90
2023/09/14 08:29:27;;;;;;;0.40;0.40;;;16.00;99.90;;;;;;4946460;28;20231;-88
2023/09/14 08:31:55;;;;;;;2.92;0.40;;;15.90;99.90;;;;;;4931355;29;20211;-88
2023/09/14 08:34:22;;;;;;;0.40;0.40;;;16.00;99.90;;;;;;4943149;28;20202;-87
2023/09/14 08:36:50;;;;;;;1.95;0.40;;;15.80;99.90;;;;;;4946139;28;20912;-90
2023/09/14 08:39:19;;;;;;;1.38;0.70;;;16.00;99.90;;;;;;4945863;28;20287;-90
2023/09/14 08:41:47;;;;;;;0.50;0.40;;;15.90;99.90;;;;;;4932777;28;20613;-90
2023/09/14 08:44:15;;;;;;;0.50;0.50;;;15.90;99.90;;;;;;4937690;29;20212;-89
2023/09/14 08:46:43;;;;;;;0.93;0.50;;;15.70;99.90;;;;;;4941133;29;20194;-87
2023/09/14 08:49:13;;;;;;;0.50;0.50;;;15.80;99.90;;;;;;4964254;28;20184;-88
2023/09/14 08:51:44;;;;;;;0.50;0.50;;;15.80;99.90;;;;;;4928471;28;20196;-89
2023/09/14 08:54:13;;;;;;;2.70;0.47;;;15.60;99.90;;;;;;4963029;28;20239;-90
2023/09/14 08:56:44;;;;;;;0.50;0.50;;;15.70;99.90;;;;;;4944258;28;20201;-90
2023/09/14 08:59:14;;;;;;;0.75;0.60;;;15.50;99.90;;;;;;4944889;28;20207;-89
2023/09/14 09:01:44;;;;;;;1.05;0.57;;;15.50;99.90;;;;;;4966225;28;20213;-90
2023/09/14 09:04:12;;;;;;;0.70;0.55;;;15.50;99.90;;;;;;4945347;29;20596;-91
2023/09/14 09:06:42;;;;;;;1.92;0.80;;;15.50;99.90;;;;;;4962807;28;20184;-90
2023/09/14 09:09:17;;;;;;;0.50;0.50;;;15.20;99.90;;;;;;4944067;29;20193;-89
2023/09/14 09:11:46;;;;;;;1.70;0.60;;;15.40;99.90;;;;;;4940600;28;20215;-88
2023/09/14 09:14:14;;;;;;;0.77;0.60;;;15.50;99.90;;;;;;4944008;28;20193;-90
2023/09/14 09:16:42;;;;;;;2.05;0.77;;;15.40;99.90;;;;;;4950982;29;20660;-90
2023/09/14 09:19:10;;;;;;;1.40;0.90;;;15.40;99.90;;;;;;4941838;28;20180;-89
2023/09/14 09:21:41;;;;;;;1.27;0.90;;;15.40;99.90;;;;;;4948057;28;20267;-88
2023/09/14 09:24:13;;;;;;;1.52;0.90;;;15.10;99.90;;;;;;4935967;28;20192;-89
2023/09/14 09:26:41;;;;;;;1.20;0.90;;;15.10;99.90;;;;;;4957335;28;20562;-89
2023/09/14 09:29:27;;;;;;;1.90;0.90;;;15.00;99.90;;;;;;4960652;28;20196;-87
2023/09/14 09:31:55;;;;;;;4.43;1.45;;;15.10;99.90;;;;;;4961153;28;20227;-89
2023/09/14 09:34:24;;;;;;;1.45;0.90;;;15.30;99.90;;;;;;4925223;28;20225;-89
2023/09/14 09:36:56;;;;;;;1.40;1.02;;;15.20;99.90;;;;;;4934828;29;20203;-88
2023/09/14 09:39:27;;;;;;;1.25;1.00;;;15.20;99.90;;;;;;4941798;29;20370;-87
2023/09/14 09:41:54;;;;;;;1.50;1.00;;;15.20;99.90;;;;;;4953192;28;20196;-89
2023/09/14 09:44:27;;;;;;;1.30;0.90;;;15.10;99.90;;;;;;4930124;29;20785;-90
2023/09/14 09:46:58;;;;;;;1.27;1.00;;;15.30;99.90;;;;;;4950576;28;20215;-91
2023/09/14 09:49:29;;;;;;;1.98;1.35;;;14.90;99.90;;;;;;4919259;28;20704;-88
2023/09/14 09:51:57;;;;;;;1.23;0.90;;;14.90;99.90;;;;;;4936220;28;20607;-89
2023/09/14 09:54:26;;;;;;;1.13;0.90;;;14.90;99.90;;;;;;4937523;28;20204;-87
2023/09/14 09:56:53;;;;;;;1.50;0.93;;;15.00;99.90;;;;;;4926787;28;20248;-90
2023/09/14 09:59:25;;;;;;;3.75;0.88;;;15.00;99.90;;;;;;4964808;28;20268;-87
2023/09/14 10:01:53;;;;;;;0.80;0.73;;;15.00;99.90;;;;;;4954440;28;20192;-89
2023/09/14 10:04:21;;;;;;;1.95;0.60;;;15.10;99.90;;;;;;4964439;28;20211;-91
2023/09/14 10:06:55;;;;;;;1.20;0.70;;;15.10;99.90;;;;;;4963367;28;20191;-89
2023/09/14 10:09:24;;;;;;;1.33;0.73;;;15.20;99.90;;;;;;4947447;28;20670;-89
2023/09/14 10:11:58;;;;;;;1.10;0.73;;;15.10;99.90;;;;;;4954918;29;20200;-90
2023/09/14 10:14:28;;;;;;;1.23;0.80;;;15.10;99.90;;;;;;4939934;28;20197;-90
2023/09/14 10:16:58;;;;;;;0.80;0.63;;;15.10;99.90;;;;;;4950868;28;20622;-90
2023/09/14 10:19:28;;;;;;;0.75;0.73;;;15.20;99.90;;;;;;4948384;28;20279;-91
2023/09/14 10:21:57;;;;;;;2.88;0.73;;;15.20;99.90;;;;;;4953605;29;20295;-90
2023/09/14 10:24:27;;;;;;;2.03;0.90;;;15.20;99.90;;;;;;4942121;29;20274;-88
2023/09/14 10:26:55;;;;;;;2.10;0.68;;;15.30;99.90;;;;;;4951484;28;20196;-91
2023/09/14 10:29:26;;;;;;;1.15;0.70;;;15.40;99.90;;;;;;4931325;28;20203;-90
2023/09/14 10:31:56;;;;;;;1.50;0.60;;;15.40;99.90;;;;;;4931214;28;20213;-89
2023/09/14 10:34:29;;;;;;;0.70;0.60;;;15.40;99.90;;;;;;4957384;28;20274;-90
2023/09/14 10:37:00;;;;;;;1.48;0.77;;;15.40;99.90;;;;;;4945973;28;20204;-89
2023/09/14 10:39:28;;;;;;;1.23;0.68;;;15.50;99.90;;;;;;4938273;29;20236;-89
2023/09/14 10:41:56;;;;;;;1.15;0.70;;;15.50;99.90;;;;;;4944007;28;20211;-91
2023/09/14 10:44:24;;;;;;;1.23;0.50;;;15.50;99.90;;;;;;4938722;28;20200;-89
2023/09/14 10:46:55;;;;;;;0.60;0.60;;;15.50;99.90;;;;;;4929671;28;20238;-90
2023/09/14 10:49:31;;;;;;;0.68;0.50;;;15.40;99.90;;;;;;4940721;28;20200;-90
2023/09/14 10:52:00;;;;;;;0.60;0.60;;;15.50;99.90;;;;;;4922503;28;20216;-90
2023/09/14 10:54:30;;;;;;;0.75;0.63;;;15.50;99.90;;;;;;4948219;29;20201;-90
2023/09/14 10:57:01;;;;;;;1.38;0.70;;;15.60;99.90;;;;;;4948442;28;20292;-87
2023/09/14 10:59:49;;;;;;;1.05;0.70;;;15.50;99.90;;;;;;4948624;28;20196;-88
2023/09/14 11:02:56;;;;;;;2.20;0.70;;;15.50;99.90;;;;;;4936229;29;20205;-89
2023/09/14 11:05:42;;;;;;;1.73;0.80;;;15.50;99.90;;;;;;4942680;28;20208;-89
2023/09/14 11:08:11;;;;;;;1.02;0.70;;;15.60;99.90;;;;;;4930893;28;20307;-89
2023/09/14 11:10:54;;;;;;;0.52;0.50;;;15.60;99.90;;;;;;4927364;28;20210;-89
2023/09/14 11:13:24;;;;;;;1.15;0.70;;;15.60;99.90;;;;;;4949827;28;20278;-89
2023/09/14 11:16:12;;;;;;;4.70;1.00;;;15.60;99.90;;;;;;4937244;29;20193;-90
2023/09/14 11:18:44;;;;;;;2.88;0.60;;;15.60;99.90;;;;;;4945915;28;20263;-91
2023/09/14 11:21:33;;;;;;;0.65;0.50;;;15.50;99.90;;;;;;4948169;28;20200;-88
2023/09/14 11:24:07;;;;;;;0.88;0.52;;;15.40;99.90;;;;;;4951158;28;20196;-87
2023/09/14 11:26:42;;;;;;;2.42;0.70;;;15.40;99.90;;;;;;4953075;28;20191;-89
2023/09/14 11:29:12;;;;;;;0.85;0.60;;;15.30;99.90;;;;;;4963918;28;20196;-90
2023/09/14 11:31:40;;;;;;;2.28;0.68;;;15.30;99.90;;;;;;4944474;28;20228;-89
2023/09/14 11:34:29;;;;;;;1.65;0.75;;;15.40;99.90;;;;;;4948255;28;20194;-88
2023/09/14 11:37:01;;;;;;;2.40;0.70;;;15.30;99.90;;;;;;4945997;28;20192;-88
2023/09/14 11:39:40;;;;;;;1.20;0.68;;;15.40;99.90;;;;;;4964901;28;20228;-88
2023/09/14 11:42:10;;;;;;;3.42;0.90;;;15.40;99.90;;;;;;4940144;28;20678;-89
2023/09/14 11:44:47;;;;;;;0.90;0.80;;;15.40;99.90;;;;;;4955940;28;20659;-91
2023/09/14 11:47:20;;;;;;;1.77;0.75;;;15.50;99.90;;;;;;4956448;28;20195;-87
2023/09/14 11:49:53;;;;;;;2.03;1.00;;;15.50;99.90;;;;;;4956243;28;20203;-88
2023/09/14 11:52:21;;;;;;;1.80;1.00;;;15.40;99.90;;;;;;4939671;28;20208;-90
2023/09/14 11:54:51;;;;;;;3.10;1.40;;;15.40;99.90;;;;;;4933357;28;20683;-89
2023/09/14 11:57:27;;;;;;;2.20;1.58;;;15.50;99.90;;;;;;4955527;28;20959;-89
2023/09/14 11:59:54;;;;;;;3.33;1.50;;;15.50;99.90;;;;;;4943410;29;20196;-88
2023/09/14 12:02:22;;;;;;;4.15;1.67;;;15.40;99.90;;;;;;4944968;29;20690;-90
2023/09/14 12:04:51;;;;;;;5.63;1.95;;;15.40;99.90;;;;;;4943508;28;20645;-90
2023/09/14 12:07:21;;;;;;;3.22;1.40;;;15.30;99.90;;;;;;4953006;28;20630;-90
2023/09/14 12:09:49;;;;;;;4.55;1.98;;;15.30;99.90;;;;;;4951376;28;20188;-89
2023/09/14 12:12:29;;;;;;;2.65;1.70;;;15.40;99.90;;;;;;4954762;28;20214;-88
2023/09/14 12:14:57;;;;;;;2.72;1.83;;;15.40;99.90;;;;;;4953039;28;20671;-86
2023/09/14 12:17:27;;;;;;;3.97;1.75;;;15.50;99.90;;;;;;4965010;28;20189;-89
2023/09/14 12:19:58;;;;;;;4.13;1.83;;;15.40;99.90;;;;;;4949641;28;20255;-89
2023/09/14 12:22:29;;;;;;;3.55;1.88;;;15.50;99.90;;;;;;4936502;28;20196;-88
2023/09/14 12:24:58;;;;;;;2.55;1.77;;;15.60;99.90;;;;;;4951973;29;20192;-89
2023/09/14 12:27:28;;;;;;;3.53;1.90;;;15.60;99.90;;;;;;4952092;29;20668;-89
2023/09/14 12:29:57;;;;;;;5.45;1.83;;;15.50;99.90;;;;;;4936333;29;20196;-91
2023/09/14 12:32:25;;;;;;;5.00;2.00;;;15.50;99.90;;;;;;4949504;28;20208;-89
2023/09/14 12:34:53;;;;;;;4.53;2.00;;;15.50;99.90;;;;;;4948989;28;20199;-89
2023/09/14 12:37:22;;;;;;;4.88;1.98;;;15.60;99.90;;;;;;4947666;28;20188;-90
2023/09/14 12:39:51;;;;;;;2.70;1.90;;;15.50;99.90;;;;;;4939326;28;20247;-88
2023/09/14 12:42:24;;;;;;;2.88;1.60;;;15.30;99.90;;;;;;4954842;28;20197;-89
2023/09/14 12:44:53;;;;;;;4.47;1.80;;;15.30;99.90;;;;;;4953306;28;20192;-87
2023/09/14 12:47:21;;;;;;;4.82;1.88;;;15.30;99.90;;;;;;4933179;28;20199;-88